Saint Petersburg, Florida
Current Conditions -  °F | °C
As of 5:53 PM on Monday 24 Nov 2014 (Local Time) from KSPG Reporting Station
Overcast Overcast  
Wind Chill: 73°   Ceiling: 500
Heat Index: 73°   Visibility: 7mi
Dew Point: 71°   Wind: 10mph
Humidity: 93%   Direction: 230°SW
Pressure: 29.94"   Gusts: NA
Location:  27.77°N, 82.63°W
Report Text: KSPG 242253Z 23009KT 7SM OVC005 23/22 A2994 RMK AO2 SLP137 VSBY LOWER WEST T02280217
Loading
Personal Weather Stations






























Interactive Weather Map New forecast layout! Learn more

10-Day Weather Forecast

Advertisements
Track Severe Weather on mobile